Time;durP1;ratioP1;P1;durP2;ratioP2;P2;SDS_P1;SDS_P2;PMS_P1;PMS_P2;Temp;Humidity;BMP_temperature;BMP_pressure;BME280_temperature;BME280_humidity;BME280_pressure;Samples;Min_cycle;Max_cycle;Signal;HPM_P1;HPM_P2
2021/08/06 00:01:15;;;;;;;11.73;3.00;;;;;;;;;;5075236;28;20070;-75
2021/08/06 00:03:42;;;;;;;11.30;2.75;;;;;;;;;;5075166;28;20443;-74
2021/08/06 00:06:08;;;;;;;9.32;3.15;;;;;;;;;;5075371;28;20017;-74
2021/08/06 00:08:35;;;;;;;7.88;2.97;;;;;;;;;;5075348;28;20029;-75
2021/08/06 00:11:01;;;;;;;13.15;4.13;;;;;;;;;;5075241;28;20447;-74
2021/08/06 00:13:27;;;;;;;10.77;2.55;;;;;;;;;;5075552;28;20028;-74
2021/08/06 00:15:53;;;;;;;10.48;2.67;;;;;;;;;;5074901;28;20073;-75
2021/08/06 00:18:19;;;;;;;10.52;2.72;;;;;;;;;;5075450;28;20029;-75
2021/08/06 00:20:45;;;;;;;11.05;2.70;;;;;;;;;;5074830;28;20024;-75
2021/08/06 00:23:12;;;;;;;11.93;2.33;;;;;;;;;;5075343;28;20085;-75
2021/08/06 00:25:38;;;;;;;11.48;2.67;;;;;;;;;;5075020;28;20074;-75
2021/08/06 00:28:04;;;;;;;10.13;2.65;;;;;;;;;;5074623;28;20060;-75
2021/08/06 00:30:31;;;;;;;8.65;2.35;;;;;;;;;;5074559;28;20427;-74
2021/08/06 00:32:57;;;;;;;12.70;3.00;;;;;;;;;;5074058;28;20071;-75
2021/08/06 00:35:23;;;;;;;11.63;2.30;;;;;;;;;;5074797;28;20082;-76
2021/08/06 00:37:49;;;;;;;8.30;1.90;;;;;;;;;;5074473;28;20027;-75
2021/08/06 00:40:15;;;;;;;9.15;2.55;;;;;;;;;;5074707;28;20021;-74
2021/08/06 00:42:41;;;;;;;6.85;2.20;;;;;;;;;;5074382;28;20041;-74
2021/08/06 00:45:07;;;;;;;14.07;2.78;;;;;;;;;;5074340;28;20032;-78
2021/08/06 00:47:37;;;;;;;7.85;2.17;;;;;;;;;;5074808;28;20029;-74
2021/08/06 00:50:03;;;;;;;7.95;2.47;;;;;;;;;;5074654;28;20025;-76
2021/08/06 00:52:29;;;;;;;6.22;2.30;;;;;;;;;;5074198;28;20021;-76
2021/08/06 00:54:55;;;;;;;9.77;2.60;;;;;;;;;;5074418;28;20031;-73
2021/08/06 00:57:21;;;;;;;8.57;2.00;;;;;;;;;;5056073;28;20029;-74
2021/08/06 00:59:47;;;;;;;8.05;2.13;;;;;;;;;;5074057;28;20032;-76
2021/08/06 01:02:43;;;;;;;9.40;2.38;;;;;;;;;;5073991;28;20390;-74
2021/08/06 01:05:12;;;;;;;9.35;2.50;;;;;;;;;;5052588;28;20039;-76
2021/08/06 01:07:41;;;;;;;8.23;2.00;;;;;;;;;;5073931;28;20032;-73
2021/08/06 01:10:08;;;;;;;13.32;3.28;;;;;;;;;;5074345;28;20040;-76
2021/08/06 01:12:39;;;;;;;9.88;2.10;;;;;;;;;;5073853;28;20028;-75
2021/08/06 01:15:05;;;;;;;8.52;2.13;;;;;;;;;;5055604;28;20512;-75
2021/08/06 01:17:33;;;;;;;10.32;3.13;;;;;;;;;;5073968;28;20031;-74
2021/08/06 01:20:03;;;;;;;8.38;2.10;;;;;;;;;;5073629;28;20099;-75
2021/08/06 01:22:47;;;;;;;10.77;2.58;;;;;;;;;;5074160;28;20028;-74
2021/08/06 01:25:16;;;;;;;10.13;2.40;;;;;;;;;;5073602;28;20017;-74
2021/08/06 01:27:44;;;;;;;10.48;2.97;;;;;;;;;;5073384;28;20413;-74
2021/08/06 01:30:11;;;;;;;11.35;2.10;;;;;;;;;;5073492;28;20090;-74
2021/08/06 01:32:38;;;;;;;12.77;3.20;;;;;;;;;;5074036;28;20039;-78
2021/08/06 01:35:05;;;;;;;11.23;2.40;;;;;;;;;;5073488;28;20012;-74
2021/08/06 01:37:31;;;;;;;9.13;2.40;;;;;;;;;;5073369;28;20441;-76
2021/08/06 01:39:58;;;;;;;12.40;2.80;;;;;;;;;;5073424;28;20086;-74
2021/08/06 01:42:37;;;;;;;8.60;1.98;;;;;;;;;;5073386;28;20099;-75
2021/08/06 01:45:06;;;;;;;11.77;3.10;;;;;;;;;;5072829;28;20116;-74
2021/08/06 01:47:39;;;;;;;7.80;2.47;;;;;;;;;;5073605;28;20488;-75
2021/08/06 01:50:07;;;;;;;11.00;2.70;;;;;;;;;;5073263;28;20480;-76
2021/08/06 01:52:36;;;;;;;10.35;2.60;;;;;;;;;;5073532;28;20389;-76
2021/08/06 01:55:02;;;;;;;10.17;2.40;;;;;;;;;;5073306;28;20048;-76
2021/08/06 01:57:32;;;;;;;9.98;2.42;;;;;;;;;;5073235;28;20254;-74
2021/08/06 02:00:00;;;;;;;12.43;2.78;;;;;;;;;;5073195;28;20024;-74
2021/08/06 02:02:26;;;;;;;8.48;2.45;;;;;;;;;;5073182;28;20127;-76
2021/08/06 02:04:53;;;;;;;12.23;2.80;;;;;;;;;;5073140;28;20028;-75
2021/08/06 02:07:19;;;;;;;12.25;2.80;;;;;;;;;;5073124;28;20099;-75
2021/08/06 02:09:46;;;;;;;8.75;2.78;;;;;;;;;;5073208;28;20025;-78
2021/08/06 02:12:12;;;;;;;13.50;2.80;;;;;;;;;;5073320;28;20384;-74
2021/08/06 02:14:38;;;;;;;10.35;2.38;;;;;;;;;;5073055;28;20392;-75
2021/08/06 02:17:05;;;;;;;10.45;2.40;;;;;;;;;;5073069;28;20074;-75
2021/08/06 02:19:31;;;;;;;7.53;1.98;;;;;;;;;;5073038;28;20020;-75
2021/08/06 02:21:59;;;;;;;7.47;2.53;;;;;;;;;;5073269;28;20090;-74
2021/08/06 02:24:27;;;;;;;8.05;2.22;;;;;;;;;;5073540;28;20067;-75
2021/08/06 02:26:54;;;;;;;8.40;2.67;;;;;;;;;;5073042;28;20032;-74
2021/08/06 02:29:21;;;;;;;7.55;2.10;;;;;;;;;;5073245;28;20086;-75
2021/08/06 02:31:48;;;;;;;5.22;1.90;;;;;;;;;;5072853;28;20119;-75
2021/08/06 02:34:15;;;;;;;8.25;2.08;;;;;;;;;;5073156;28;20031;-74
2021/08/06 02:36:41;;;;;;;8.90;2.13;;;;;;;;;;5072773;28;20059;-75
2021/08/06 02:39:39;;;;;;;10.10;2.67;;;;;;;;;;5072827;28;20028;-76
2021/08/06 02:42:06;;;;;;;6.10;2.35;;;;;;;;;;5018368;28;20029;-73
2021/08/06 02:44:36;;;;;;;8.25;1.77;;;;;;;;;;5072780;28;20027;-74
2021/08/06 02:47:02;;;;;;;5.30;1.48;;;;;;;;;;5073048;28;20020;-75
2021/08/06 02:49:31;;;;;;;9.60;2.00;;;;;;;;;;5072997;28;20405;-74
2021/08/06 02:51:57;;;;;;;9.03;2.00;;;;;;;;;;5072688;28;20024;-74
2021/08/06 02:54:23;;;;;;;7.88;2.35;;;;;;;;;;5072673;28;20623;-73
2021/08/06 02:56:49;;;;;;;8.40;2.08;;;;;;;;;;5074934;28;20024;-75
2021/08/06 02:59:15;;;;;;;5.13;1.92;;;;;;;;;;5076648;28;20025;-75
2021/08/06 03:01:41;;;;;;;9.82;1.95;;;;;;;;;;5076572;28;20032;-74
2021/08/06 03:04:07;;;;;;;6.93;1.40;;;;;;;;;;5076266;28;20502;-73
2021/08/06 03:06:33;;;;;;;9.43;2.50;;;;;;;;;;5076234;28;20036;-76
2021/08/06 03:08:59;;;;;;;7.93;2.03;;;;;;;;;;5076478;28;20025;-76
2021/08/06 03:11:25;;;;;;;8.75;2.63;;;;;;;;;;5076071;28;20028;-73
2021/08/06 03:13:51;;;;;;;9.35;1.95;;;;;;;;;;5076144;28;20020;-74
2021/08/06 03:16:17;;;;;;;6.57;1.67;;;;;;;;;;5076042;28;20067;-76
2021/08/06 03:18:43;;;;;;;10.90;2.50;;;;;;;;;;5076332;28;20048;-77
2021/08/06 03:21:09;;;;;;;6.68;2.10;;;;;;;;;;5076000;28;20033;-76
2021/08/06 03:23:35;;;;;;;10.23;2.25;;;;;;;;;;5076197;28;20032;-74
2021/08/06 03:26:01;;;;;;;13.27;2.67;;;;;;;;;;5075904;28;20082;-75
2021/08/06 03:28:27;;;;;;;9.55;2.53;;;;;;;;;;5075704;28;20056;-76
2021/08/06 03:30:54;;;;;;;5.93;1.90;;;;;;;;;;5075981;28;20043;-75
2021/08/06 03:33:20;;;;;;;6.25;1.92;;;;;;;;;;5076080;28;20377;-74
2021/08/06 03:35:46;;;;;;;7.30;1.77;;;;;;;;;;5075712;28;20024;-76
2021/08/06 03:38:13;;;;;;;8.52;2.30;;;;;;;;;;5075700;28;20104;-75
2021/08/06 03:40:39;;;;;;;7.55;1.83;;;;;;;;;;5075628;28;20056;-74
2021/08/06 03:43:05;;;;;;;7.95;2.03;;;;;;;;;;5075602;28;20063;-74
2021/08/06 03:45:31;;;;;;;8.63;2.08;;;;;;;;;;5075496;28;20029;-73
2021/08/06 03:47:57;;;;;;;8.88;2.10;;;;;;;;;;5075488;28;20035;-76
2021/08/06 03:50:23;;;;;;;8.18;1.60;;;;;;;;;;5075393;28;20062;-76
2021/08/06 03:52:49;;;;;;;8.63;2.00;;;;;;;;;;5075380;28;20046;-74
2021/08/06 03:55:15;;;;;;;5.78;1.80;;;;;;;;;;5075667;28;20029;-74
2021/08/06 03:57:50;;;;;;;8.70;2.08;;;;;;;;;;5075308;28;20023;-76
2021/08/06 04:00:17;;;;;;;7.28;2.17;;;;;;;;;;5075260;28;20036;-75
2021/08/06 04:02:44;;;;;;;6.18;1.67;;;;;;;;;;5075278;28;20024;-76
2021/08/06 04:05:10;;;;;;;7.63;2.03;;;;;;;;;;5075168;28;20021;-74
2021/08/06 04:07:41;;;;;;;7.80;2.30;;;;;;;;;;5074239;28;20051;-73
2021/08/06 04:10:08;;;;;;;6.07;1.60;;;;;;;;;;5075330;28;20024;-76
2021/08/06 04:12:34;;;;;;;9.07;2.05;;;;;;;;;;5075256;28;20542;-74
2021/08/06 04:15:00;;;;;;;7.10;1.77;;;;;;;;;;5075015;28;20043;-76
2021/08/06 04:17:26;;;;;;;6.22;1.70;;;;;;;;;;5074956;28;20473;-75
2021/08/06 04:19:52;;;;;;;10.52;2.15;;;;;;;;;;5075203;28;20027;-74
2021/08/06 04:22:18;;;;;;;10.52;2.10;;;;;;;;;;5074795;28;20025;-73
2021/08/06 04:24:44;;;;;;;9.93;2.15;;;;;;;;;;5074795;28;20104;-73
2021/08/06 04:27:10;;;;;;;8.70;2.13;;;;;;;;;;5074570;28;20044;-76
2021/08/06 04:29:37;;;;;;;8.43;2.47;;;;;;;;;;5074996;28;20028;-74
2021/08/06 04:32:03;;;;;;;8.70;2.00;;;;;;;;;;5074580;28;20436;-74
2021/08/06 04:34:29;;;;;;;8.15;2.25;;;;;;;;;;5074826;28;20059;-76
2021/08/06 04:36:55;;;;;;;12.43;2.90;;;;;;;;;;5074456;28;20052;-75
2021/08/06 04:39:21;;;;;;;10.07;2.40;;;;;;;;;;5074479;28;20025;-76
2021/08/06 04:41:50;;;;;;;9.88;2.50;;;;;;;;;;5074429;28;20392;-75
2021/08/06 04:44:17;;;;;;;8.13;2.20;;;;;;;;;;5074709;28;20039;-74
2021/08/06 04:46:43;;;;;;;9.35;2.28;;;;;;;;;;5074348;28;20122;-77
2021/08/06 04:49:09;;;;;;;11.85;2.22;;;;;;;;;;5074301;28;20031;-74
2021/08/06 04:51:35;;;;;;;8.80;2.33;;;;;;;;;;5074416;28;20032;-75
2021/08/06 04:54:01;;;;;;;8.80;2.47;;;;;;;;;;5074206;28;20031;-74
2021/08/06 04:56:28;;;;;;;10.57;2.80;;;;;;;;;;5074134;28;20463;-74
2021/08/06 04:58:54;;;;;;;12.73;2.53;;;;;;;;;;5074363;28;20021;-73
2021/08/06 05:01:20;;;;;;;6.97;2.10;;;;;;;;;;5074007;28;20469;-75
2021/08/06 05:03:45;;;;;;;9.02;2.33;;;;;;;;;;5074021;28;20021;-75
2021/08/06 05:06:13;;;;;;;12.10;2.55;;;;;;;;;;5074237;28;20393;-74
2021/08/06 05:08:42;;;;;;;8.43;2.42;;;;;;;;;;5073925;28;20025;-74
2021/08/06 05:11:08;;;;;;;9.70;2.20;;;;;;;;;;5073796;28;20057;-74
2021/08/06 05:13:34;;;;;;;9.60;2.55;;;;;;;;;;5073819;28;20020;-74
2021/08/06 05:16:00;;;;;;;9.68;2.40;;;;;;;;;;5073820;28;20029;-74
2021/08/06 05:18:26;;;;;;;12.65;2.75;;;;;;;;;;5073635;28;20020;-74
2021/08/06 05:20:52;;;;;;;9.70;2.50;;;;;;;;;;5073716;28;20451;-75
2021/08/06 05:23:18;;;;;;;9.93;2.22;;;;;;;;;;5073654;28;20082;-73
2021/08/06 05:25:44;;;;;;;7.53;2.08;;;;;;;;;;5073622;28;20112;-73
2021/08/06 05:28:10;;;;;;;12.35;2.53;;;;;;;;;;5073850;28;20048;-74
2021/08/06 05:30:36;;;;;;;11.48;2.92;;;;;;;;;;5073457;28;20024;-76
2021/08/06 05:33:04;;;;;;;12.02;2.88;;;;;;;;;;5073523;28;20016;-74
2021/08/06 05:35:30;;;;;;;8.48;2.33;;;;;;;;;;5074068;28;20085;-75
2021/08/06 05:37:56;;;;;;;10.13;3.58;;;;;;;;;;5073679;28;20016;-74
2021/08/06 05:40:22;;;;;;;11.43;3.03;;;;;;;;;;5073500;28;20369;-75
2021/08/06 05:42:48;;;;;;;7.40;2.35;;;;;;;;;;5073427;28;20078;-74
2021/08/06 05:45:14;;;;;;;7.65;2.28;;;;;;;;;;5073682;28;20032;-74
2021/08/06 05:47:44;;;;;;;9.98;2.38;;;;;;;;;;5073352;28;20123;-74
2021/08/06 05:50:10;;;;;;;;;;;;;;;;;;5073699;28;20028;-75
2021/08/06 05:52:36;;;;;;;9.18;2.13;;;;;;;;;;5073354;28;19905;-74
2021/08/06 05:55:02;;;;;;;9.73;2.10;;;;;;;;;;5055343;28;20025;-74
2021/08/06 05:57:28;;;;;;;9.88;2.47;;;;;;;;;;5073785;28;20028;-74
2021/08/06 05:59:54;;;;;;;8.00;1.77;;;;;;;;;;5073229;28;20027;-76
2021/08/06 06:02:20;;;;;;;7.95;2.42;;;;;;;;;;5073201;28;20025;-77
2021/08/06 06:04:46;;;;;;;7.60;2.13;;;;;;;;;;5073181;28;20100;-77
2021/08/06 06:07:12;;;;;;;8.60;2.20;;;;;;;;;;5073142;28;20026;-78
2021/08/06 06:09:38;;;;;;;8.43;2.15;;;;;;;;;;5073138;28;20020;-74
2021/08/06 06:12:05;;;;;;;10.23;2.83;;;;;;;;;;5073034;28;20434;-73
2021/08/06 06:14:31;;;;;;;8.15;2.40;;;;;;;;;;5073364;28;20043;-77
2021/08/06 06:16:57;;;;;;;10.30;2.53;;;;;;;;;;5073336;28;20539;-74
2021/08/06 06:19:23;;;;;;;10.23;2.58;;;;;;;;;;5073035;28;20017;-74
2021/08/06 06:21:49;;;;;;;10.32;2.92;;;;;;;;;;5073299;28;20103;-74
2021/08/06 06:24:15;;;;;;;8.82;2.60;;;;;;;;;;5072987;28;20024;-74
2021/08/06 06:26:41;;;;;;;15.27;3.65;;;;;;;;;;5073459;28;20070;-78
2021/08/06 06:29:07;;;;;;;9.10;2.58;;;;;;;;;;5072850;28;20146;-74
2021/08/06 06:31:33;;;;;;;9.60;2.60;;;;;;;;;;5075351;28;20024;-77
2021/08/06 06:34:00;;;;;;;9.18;2.80;;;;;;;;;;5076942;28;20384;-76
2021/08/06 06:36:26;;;;;;;12.52;3.40;;;;;;;;;;5076835;28;20078;-75
2021/08/06 06:38:52;;;;;;;7.43;2.28;;;;;;;;;;5076799;28;20025;-76
2021/08/06 06:41:18;;;;;;;8.93;2.00;;;;;;;;;;5076769;28;20039;-75
2021/08/06 06:43:44;;;;;;;13.07;2.67;;;;;;;;;;5076692;28;20496;-76
2021/08/06 06:46:10;;;;;;;14.45;3.05;;;;;;;;;;5076615;28;20028;-79
2021/08/06 06:48:36;;;;;;;9.90;3.25;;;;;;;;;;5076925;28;20432;-79
2021/08/06 06:51:02;;;;;;;9.20;2.63;;;;;;;;;;5076491;28;20024;-78
2021/08/06 06:53:29;;;;;;;11.35;2.30;;;;;;;;;;5076452;28;20017;-78
2021/08/06 06:55:55;;;;;;;9.25;2.08;;;;;;;;;;5076439;28;20029;-79
2021/08/06 06:58:22;;;;;;;6.30;1.95;;;;;;;;;;5076366;28;20023;-79
2021/08/06 07:00:48;;;;;;;8.13;2.17;;;;;;;;;;5076921;28;20522;-79
2021/08/06 07:03:14;;;;;;;9.50;2.00;;;;;;;;;;5076314;28;20029;-78
2021/08/06 07:05:40;;;;;;;13.70;2.53;;;;;;;;;;5076495;28;20036;-81
2021/08/06 07:08:06;;;;;;;8.10;1.95;;;;;;;;;;5076293;28;20491;-81
2021/08/06 07:10:33;;;;;;;11.57;2.55;;;;;;;;;;5076142;28;20393;-77
2021/08/06 07:12:59;;;;;;;8.57;2.35;;;;;;;;;;5076177;28;20028;-81
2021/08/06 07:15:25;;;;;;;8.05;2.00;;;;;;;;;;5058124;28;20024;-79
2021/08/06 07:17:51;;;;;;;7.63;1.95;;;;;;;;;;5076021;28;20407;-79
2021/08/06 07:20:18;;;;;;;9.27;2.17;;;;;;;;;;5075998;28;20039;-80
2021/08/06 07:22:44;;;;;;;8.43;2.05;;;;;;;;;;5076223;28;20020;-79
2021/08/06 07:25:11;;;;;;;10.73;2.42;;;;;;;;;;5076179;28;20431;-79
2021/08/06 07:27:38;;;;;;;14.95;3.08;;;;;;;;;;5075896;28;20476;-66
2021/08/06 07:30:05;;;;;;;30.65;5.07;;;;;;;;;;5075747;28;20024;-72
2021/08/06 07:32:31;;;;;;;7.88;2.20;;;;;;;;;;5075818;28;20048;-78
2021/08/06 07:34:57;;;;;;;5.47;1.77;;;;;;;;;;5076058;28;20182;-78
2021/08/06 07:37:23;;;;;;;10.00;2.17;;;;;;;;;;5075929;28;20021;-79
2021/08/06 07:39:49;;;;;;;7.40;2.20;;;;;;;;;;5075648;28;20074;-79
2021/08/06 07:42:15;;;;;;;8.90;2.33;;;22.80;82.20;;;;;;5074458;28;20531;-79
2021/08/06 07:44:42;;;;;;;9.70;2.22;;;20.80;86.30;;;;;;5075534;28;20028;-79
2021/08/06 07:47:07;;;;;;;8.15;1.90;;;20.40;87.50;;;;;;5075539;28;20035;-79
2021/08/06 07:49:33;;;;;;;9.38;2.35;;;20.60;87.20;;;;;;5076119;28;20036;-82
2021/08/06 07:51:59;;;;;;;7.32;2.50;;;20.40;86.10;;;;;;5075388;28;20035;-81
2021/08/06 07:54:25;;;;;;;8.63;1.95;;;20.10;87.90;;;;;;5075689;28;20021;-78
2021/08/06 07:56:50;;;;;;;10.57;2.20;;;20.00;88.30;;;;;;5075351;28;20060;-80
2021/08/06 08:04:28;;;;;;;5.70;1.30;;;;;;;;;;2966028;26;21233;-81
2021/08/06 08:06:54;;;;;;;3.38;1.17;;;;;;;;;;5035586;28;20434;-79
2021/08/06 08:09:20;;;;;;;3.42;1.13;;;;;;;;;;5034026;28;20025;-76
2021/08/06 08:11:46;;;;;;;4.78;1.15;;;;;;;;;;5033859;28;20075;-80
2021/08/06 08:14:12;;;;;;;6.93;1.88;;;;;;;;;;5035200;28;20507;-73
2021/08/06 08:16:38;;;;;;;4.15;1.48;;;;;;;;;;5035111;28;20061;-73
2021/08/06 08:19:04;;;;;;;6.18;1.60;;;;;;;;;;5035410;28;20028;-73
2021/08/06 08:21:30;;;;;;;6.13;2.20;;;;;;;;;;5035014;28;20447;-74
2021/08/06 08:23:56;;;;;;;7.97;1.95;;;;;;;;;;5034972;28;20021;-74
2021/08/06 08:26:23;;;;;;;10.05;2.55;;;;;;;;;;5034962;28;20026;-74
2021/08/06 08:28:49;;;;;;;10.43;2.40;;;;;;;;;;5034861;28;20025;-75
2021/08/06 08:31:17;;;;;;;8.02;2.05;;;;;;;;;;5035036;28;20083;-75
2021/08/06 08:33:43;;;;;;;11.65;2.42;;;;;;;;;;5035054;28;20417;-73
2021/08/06 08:36:09;;;;;;;8.15;2.08;;;;;;;;;;5034727;28;20025;-74
2021/08/06 08:38:35;;;;;;;8.65;2.55;;;;;;;;;;5034695;28;20029;-74
2021/08/06 08:41:01;;;;;;;8.77;1.95;;;;;;;;;;5034632;28;20506;-73
2021/08/06 08:43:27;;;;;;;7.70;2.38;;;;;;;;;;5034627;28;20104;-74
2021/08/06 08:45:55;;;;;;;9.13;2.13;;;;;;;;;;5034598;28;20480;-74
2021/08/06 08:48:21;;;;;;;7.40;1.95;;;;;;;;;;5034509;28;20032;-73
2021/08/06 08:50:47;;;;;;;6.43;2.03;;;;;;;;;;5034633;28;20034;-73
2021/08/06 08:53:13;;;;;;;7.97;2.08;;;;;;;;;;5034419;28;20021;-74
2021/08/06 08:55:40;;;;;;;7.32;2.00;;;;;;;;;;5034284;28;20485;-74
2021/08/06 08:58:06;;;;;;;6.78;1.67;;;;;;;;;;5034108;28;20035;-73
2021/08/06 09:00:32;;;;;;;6.50;1.65;;;;;;;;;;5034266;28;20146;-74
2021/08/06 09:02:58;;;;;;;6.05;2.05;;;;;;;;;;5034366;28;20029;-73
2021/08/06 09:05:25;;;;;;;5.13;1.55;;;;;;;;;;5031950;28;20136;-74
2021/08/06 09:07:52;;;;;;;6.32;1.52;;;;;;;;;;5032848;28;20449;-73
2021/08/06 09:10:20;;;;;;;6.15;1.50;;;;;;;;;;5034278;28;20029;-73
2021/08/06 09:12:49;;;;;;;6.38;1.50;;;;;;;;;;5034046;28;20032;-73
2021/08/06 09:15:15;;;;;;;4.72;1.45;;;;;;;;;;5034058;28;20036;-73
2021/08/06 09:17:41;;;;;;;4.88;1.48;;;;;;;;;;5033948;28;20393;-72
2021/08/06 09:20:09;;;;;;;5.07;1.50;;;;;;;;;;5034167;28;20028;-72
2021/08/06 09:22:38;;;;;;;3.95;1.40;;;;;;;;;;5032574;28;20489;-74
2021/08/06 09:25:08;;;;;;;5.80;1.77;;;;;;;;;;5033739;28;20097;-72
2021/08/06 09:27:35;;;;;;;5.70;1.63;;;;;;;;;;5034267;28;20384;-72
2021/08/06 09:30:02;;;;;;;10.25;2.15;;;;;;;;;;5033280;28;20087;-73
2021/08/06 09:32:44;;;;;;;6.20;1.45;;;;;;;;;;5033413;28;20053;-72
2021/08/06 09:35:13;;;;;;;5.53;1.65;;;;;;;;;;5033904;28;20103;-73
2021/08/06 09:37:39;;;;;;;9.13;1.48;;;;;;;;;;5034338;28;20396;-73
2021/08/06 09:40:11;;;;;;;3.75;1.33;;;;;;;;;;5033376;28;20095;-72
2021/08/06 09:42:39;;;;;;;5.55;1.25;;;;;;;;;;5033804;28;20029;-73
2021/08/06 09:45:05;;;;;;;10.07;1.35;;;;;;;;;;5033804;28;20041;-73
2021/08/06 09:47:32;;;;;;;7.35;1.80;;;;;;;;;;5034071;28;20036;-70
2021/08/06 09:49:59;;;;;;;6.68;1.65;;;;;;;;;;5033421;28;20075;-71
2021/08/06 09:52:32;;;;;;;10.13;1.77;;;;;;;;;;5033151;28;20061;-74
2021/08/06 09:54:58;;;;;;;5.50;1.30;;;;;;;;;;5032320;28;20105;-72
2021/08/06 09:57:24;;;;;;;9.15;2.00;;;;;;;;;;5033016;28;20025;-75
2021/08/06 09:59:51;;;;;;;6.20;1.50;;;;;;;;;;5034003;28;20025;-77
2021/08/06 10:02:21;;;;;;;5.32;1.33;;;;;;;;;;5033243;28;20029;-78
2021/08/06 10:04:56;;;;;;;6.03;1.60;;;;;;;;;;5033024;28;20049;-77
2021/08/06 10:07:23;;;;;;;5.20;1.38;;;;;;;;;;5032052;28;20343;-74
2021/08/06 10:09:49;;;;;;;4.53;1.40;;;;;;;;;;5034916;28;20030;-75
2021/08/06 10:12:16;;;;;;;4.13;1.40;;;;;;;;;;5035170;28;20061;-72
2021/08/06 10:14:43;;;;;;;5.85;1.23;;;;;;;;;;5035016;28;20496;-75
2021/08/06 10:17:10;;;;;;;3.25;1.05;;;;;;;;;;5037215;28;20484;-77
2021/08/06 10:19:36;;;;;;;3.15;1.30;;;;;;;;;;5033635;28;20496;-78
2021/08/06 10:22:03;;;;;;;2.15;0.80;;;;;;;;;;5033474;28;20431;-74
2021/08/06 10:24:30;;;;;;;2.75;1.20;;;;;;;;;;5031928;28;20040;-78
2021/08/06 10:26:56;;;;;;;4.60;1.08;;;;;;;;;;5033319;28;20075;-74
2021/08/06 10:29:23;;;;;;;2.60;1.05;;;;;;;;;;5032505;28;20393;-76
2021/08/06 10:32:08;;;;;;;1.40;0.70;;;;;;;;;;5033475;28;20021;-78
2021/08/06 10:34:34;;;;;;;3.28;1.15;;;;;;;;;;5033226;28;20030;-75
2021/08/06 10:37:00;;;;;;;3.25;0.93;;;;;;;;;;5033460;28;20079;-76
2021/08/06 10:39:35;;;;;;;4.53;0.98;;;;;;;;;;5033272;28;20025;-77
2021/08/06 10:42:01;;;;;;;2.97;0.85;;;;;;;;;;5033672;28;20549;-77
2021/08/06 10:44:47;;;;;;;1.85;0.80;;;;;;;;;;5032839;28;20026;-77
2021/08/06 10:47:13;;;;;;;2.33;0.85;;;;;;;;;;5032919;28;20036;-77
2021/08/06 10:49:39;;;;;;;3.83;1.23;;;;;;;;;;5031491;28;20116;-76
2021/08/06 10:52:11;;;;;;;3.25;0.85;;;;;;;;;;5032651;28;20091;-78
2021/08/06 10:54:38;;;;;;;4.90;1.00;;;;;;;;;;5032764;28;20029;-78
2021/08/06 10:57:12;;;;;;;2.75;1.13;;;;;;;;;;5032997;28;20017;-78
2021/08/06 10:59:39;;;;;;;3.40;1.20;;;;;;;;;;5033275;28;20026;-78
2021/08/06 11:02:05;;;;;;;3.55;0.98;;;;;;;;;;5033014;28;20026;-80
2021/08/06 11:04:31;;;;;;;3.15;0.90;;;;;;;;;;5032771;28;20037;-78
2021/08/06 11:06:58;;;;;;;4.30;1.05;;;;;;;;;;5032705;28;20037;-78
2021/08/06 11:09:28;;;;;;;3.90;1.17;;;;;;;;;;5033339;28;20040;-78
2021/08/06 11:11:59;;;;;;;2.65;0.90;;;;;;;;;;5032760;28;20026;-78
2021/08/06 11:14:31;;;;;;;3.80;1.02;;;;;;;;;;5033253;28;20026;-79
2021/08/06 11:17:16;;;;;;;3.42;0.90;;;;;;;;;;5033610;28;20025;-78
2021/08/06 11:19:45;;;;;;;2.40;1.20;;;;;;;;;;5036152;28;20103;-78
2021/08/06 11:22:22;;;;;;;4.82;1.17;;;;;;;;;;5036663;28;20025;-79
2021/08/06 11:24:49;;;;;;;2.50;1.20;;;;;;;;;;5036043;28;20116;-78
2021/08/06 11:27:16;;;;;;;3.78;1.00;;;;;;;;;;5034715;28;20036;-79
2021/08/06 11:29:43;;;;;;;3.53;1.33;;;;;;;;;;5036265;28;20052;-78
2021/08/06 11:32:15;;;;;;;5.60;1.45;;;;;;;;;;5036173;28;20164;-78
2021/08/06 11:34:48;;;;;;;3.17;1.33;;;;;;;;;;5035875;28;20385;-80
2021/08/06 11:37:14;;;;;;;4.65;1.45;;;;;;;;;;5034614;28;20026;-79
2021/08/06 11:39:40;;;;;;;5.07;1.48;;;;;;;;;;5035829;28;20392;-80
2021/08/06 11:42:10;;;;;;;7.57;1.75;;;;;;;;;;5035736;28;20064;-80
2021/08/06 11:44:36;;;;;;;4.90;1.50;;;;;;;;;;5036316;28;20064;-79
2021/08/06 11:47:02;;;;;;;4.75;1.38;;;;;;;;;;5035977;28;20411;-80
2021/08/06 11:49:28;;;;;;;4.43;1.50;;;;;;;;;;5034337;28;20026;-79
2021/08/06 11:51:57;;;;;;;3.67;1.25;;;;;;;;;;5036064;28;20087;-80
2021/08/06 11:54:24;;;;;;;4.65;1.27;;;;;;;;;;5035623;28;20018;-80
2021/08/06 11:56:57;;;;;;;5.55;1.52;;;;;;;;;;5035510;28;20527;-82
2021/08/06 11:59:24;;;;;;;4.50;1.42;;;;;;;;;;5035486;28;20037;-77
2021/08/06 12:01:51;;;;;;;5.65;1.42;;;;;;;;;;5035324;28;20026;-80
2021/08/06 12:04:26;;;;;;;6.43;1.55;;;;;;;;;;5035775;28;20064;-78
2021/08/06 12:06:53;;;;;;;4.85;1.30;;;;;;;;;;5033854;28;20512;-80
2021/08/06 12:09:19;;;;;;;4.80;1.52;;;;;;;;;;5035264;28;20025;-78
2021/08/06 12:11:45;;;;;;;4.80;1.40;;;;;;;;;;5035410;28;20086;-81
2021/08/06 12:14:12;;;;;;;5.13;1.30;;;;;;;;;;5035428;28;20028;-79
2021/08/06 12:16:38;;;;;;;5.50;1.30;;;;;;;;;;5035120;28;20024;-79
2021/08/06 12:19:04;;;;;;;3.92;1.15;;;;;;;;;;5033841;28;20072;-78
2021/08/06 12:21:32;;;;;;;5.50;1.40;;;;;;;;;;5035308;28;20036;-80
2021/08/06 12:24:00;;;;;;;3.10;1.15;;;;;;;;;;5033730;28;20025;-78
2021/08/06 12:26:35;;;;;;;1.98;1.10;;;;;;;;;;5033667;28;20488;-78
2021/08/06 12:29:09;;;;;;;4.32;1.20;;;;;;;;;;5032831;28;20082;-81
2021/08/06 12:31:46;;;;;;;6.60;1.80;;;;;;;;;;5035039;28;20465;-78
2021/08/06 12:34:13;;;;;;;4.43;1.60;;;;;;;;;;5035078;28;20044;-78
2021/08/06 12:36:41;;;;;;;5.82;1.63;;;;;;;;;;5033425;28;20017;-80
2021/08/06 12:39:11;;;;;;;5.75;1.70;;;;;;;;;;5034690;28;20079;-78
2021/08/06 12:41:38;;;;;;;6.38;1.83;;;;;;;;;;5035178;28;20489;-79
2021/08/06 12:44:19;;;;;;;5.63;1.67;;;;;;;;;;5034560;28;20559;-79
2021/08/06 12:47:16;;;;;;;4.82;1.45;;;;;;;;;;5033265;28;20435;-80
2021/08/06 12:49:42;;;;;;;3.45;1.20;;;;;;;;;;5018641;28;20049;-77
2021/08/06 12:52:18;;;;;;;4.10;1.23;;;;;;;;;;5034337;28;20104;-79
2021/08/06 12:55:04;;;;;;;5.13;1.38;;;;;;;;;;5033164;28;20033;-78
2021/08/06 12:57:45;;;;;;;5.88;1.25;;;;;;;;;;5034672;28;20479;-79
2021/08/06 13:00:15;;;;;;;5.07;1.38;;;;;;;;;;5033008;28;20385;-78
2021/08/06 13:02:42;;;;;;;3.85;1.38;;;;;;;;;;5034171;28;20025;-79
2021/08/06 13:05:09;;;;;;;5.63;1.40;;;;;;;;;;5034349;28;20049;-77
2021/08/06 13:07:35;;;;;;;5.80;1.38;;;;;;;;;;5034173;28;20021;-79
2021/08/06 13:10:01;;;;;;;7.40;1.88;;;;;;;;;;5034353;28;20022;-78
2021/08/06 13:12:29;;;;;;;5.10;1.60;;;;;;;;;;5034007;28;20485;-78
2021/08/06 13:14:56;;;;;;;7.22;1.70;;;;;;;;;;5034268;28;20233;-79
2021/08/06 13:17:24;;;;;;;8.00;1.77;;;;;;;;;;5034023;28;20032;-80
2021/08/06 13:19:50;;;;;;;5.95;2.13;;;;;;;;;;5033978;28;20469;-79
2021/08/06 13:22:17;;;;;;;8.77;1.92;;;;;;;;;;5032640;28;20048;-79
2021/08/06 13:24:44;;;;;;;6.32;2.00;;;;;;;;;;5034195;28;20474;-79
2021/08/06 13:27:11;;;;;;;10.02;2.20;;;;;;;;;;5033791;28;20096;-78
2021/08/06 13:29:37;;;;;;;4.78;1.88;;;;;;;;;;5032458;28;20068;-78
2021/08/06 13:32:04;;;;;;;4.95;1.65;;;;;;;;;;5033667;28;20542;-80
2021/08/06 13:34:31;;;;;;;4.45;1.60;;;;;;;;;;5033952;28;20072;-78
2021/08/06 13:36:57;;;;;;;7.35;1.77;;;;;;;;;;5032362;28;20030;-81
2021/08/06 13:39:23;;;;;;;9.75;1.75;;;;;;;;;;5032374;28;20443;-79
2021/08/06 13:41:49;;;;;;;7.55;2.53;;;;;;;;;;5033604;28;20025;-79
2021/08/06 13:44:15;;;;;;;4.35;1.88;;;;;;;;;;5034092;28;20059;-80
2021/08/06 13:46:41;;;;;;;8.73;2.08;;;;;;;;;;5033505;28;20022;-79
2021/08/06 13:49:08;;;;;;;8.35;2.03;;;;;;;;;;5033469;28;20369;-79
2021/08/06 13:51:34;;;;;;;9.18;2.08;;;;;;;;;;5032087;28;20021;-79
2021/08/06 13:54:00;;;;;;;5.57;1.60;;;;;;;;;;5033485;28;20037;-80
2021/08/06 13:56:26;;;;;;;6.75;1.55;;;;;;;;;;5033409;28;20033;-80
2021/08/06 13:58:52;;;;;;;6.40;1.75;;;;;;;;;;5033389;28;20021;-78
2021/08/06 14:01:18;;;;;;;7.40;1.88;;;;;;;;;;5033340;28;20025;-78
2021/08/06 14:03:44;;;;;;;5.68;1.60;;;;;;;;;;5033271;28;20056;-79
2021/08/06 14:06:10;;;;;;;5.90;1.30;;;;;;;;;;5032915;28;20497;-78
2021/08/06 14:08:40;;;;;;;4.38;1.55;;;;;;;;;;5033225;28;20036;-80
2021/08/06 14:11:06;;;;;;;7.07;1.58;;;;;;;;;;5033398;28;20485;-78
2021/08/06 14:13:32;;;;;;;4.03;1.52;;;;;;;;;;5033473;28;20029;-80
2021/08/06 14:15:58;;;;;;;7.85;1.65;;;;;;;;;;5033425;28;20025;-79
2021/08/06 14:18:25;;;;;;;6.05;1.67;;;;;;;;;;5033527;28;20033;-78
2021/08/06 14:20:51;;;;;;;8.57;2.00;;;;;;;;;;5033540;28;20021;-80
2021/08/06 14:23:19;;;;;;;5.10;1.60;;;;;;;;;;5033148;28;20033;-80
2021/08/06 14:25:45;;;;;;;4.72;1.40;;;;;;;;;;5033174;28;20021;-79
2021/08/06 14:28:11;;;;;;;6.03;1.67;;;;;;;;;;5050639;28;20079;-77
2021/08/06 14:30:37;;;;;;;7.30;2.10;;;;;;;;;;5054858;28;20052;-76
2021/08/06 14:33:03;;;;;;;9.23;1.77;;;;;;;;;;5050944;28;20420;-79
2021/08/06 14:35:29;;;;;;;4.90;1.45;;;;;;;;;;5040860;28;20028;-78
2021/08/06 14:37:55;;;;;;;7.05;2.05;;;;;;;;;;5041917;28;20029;-77
2021/08/06 14:40:24;;;;;;;6.38;1.60;;;;;;;;;;5039870;28;20491;-78
2021/08/06 14:42:50;;;;;;;6.80;1.70;;;;;;;;;;5035548;28;20032;-79
2021/08/06 14:45:17;;;;;;;11.77;2.30;;;;;;;;;;5036695;28;20077;-78